Overview Statistics Trail Chart Weather Telemetry Raw packets
 

This is the latest recevied weather packets stored in our database for station/object W7TRD. If no packets are shown the sender has not sent any weather packets the latest 10 day(s).

<< 81 82 83 84 85 86 87 >>
Time Temp. Humidity Pressure Rain* Wind** Luminosity Snow
1788027278 19.44° C 63% 1020.2 hPa 0 mm - 588 W/m² -
1788026977 18.89° C 67% 1020.8 hPa 0 mm - 434 W/m² -
1788026672 19.44° C 64% 1020.4 hPa 0 mm - 261 W/m² -
1788026368 18.89° C 65% 1020.5 hPa 0 mm - 304 W/m² -
1788026064 17.78° C 69% 1020.4 hPa 0 mm - 446 W/m² -
1788025762 17.78° C 68% 1020.5 hPa 0 mm - 244 W/m² -
1788025468 17.78° C 69% 1020.5 hPa 0 mm - 317 W/m² -
1788025158 17.22° C 71% 1020.6 hPa 0 mm - 294 W/m² -
1788024857 17.78° C 72% 1020.4 hPa 0 mm - 229 W/m² -
1788024554 17.78° C 71% 1020.5 hPa 0 mm - 220 W/m² -
1788024252 17.78° C 71% 1020.5 hPa 0 mm - 252 W/m² -
1788023948 17.78° C 69% 1020.6 hPa 0 mm - 274 W/m² -
1788023651 18.33° C 73% 1020.6 hPa 0 mm - 278 W/m² -
1788023340 18.33° C 71% 1020.4 hPa 0 mm - 314 W/m² -
1788023039 17.78° C 71% 1020.3 hPa 0 mm - 283 W/m² -
1788022737 18.89° C 71% 1020.3 hPa 0 mm - 223 W/m² -
1788022436 17.78° C 71% 1020.3 hPa 0 mm - 163 W/m² -
1788022131 18.89° C 69% 1020.4 hPa 0 mm - 176 W/m² -
1788021825 17.78° C 73% 1020.4 hPa 0 mm - 186 W/m² -
1788021523 17.78° C 73% 1020.3 hPa 0 mm - 149 W/m² -
1788021223 18.33° C 73% 1020.2 hPa 0 mm - 184 W/m² -
1788020919 18.89° C 72% 1020.2 hPa 0 mm - 253 W/m² -
1788020618 17.78° C 75% 1020.3 hPa 0 mm - 179 W/m² -
1788020315 17.78° C 78% 1020.2 hPa 0 mm - 113 W/m² -
1788020010 17.78° C 77% 1020.3 hPa 0 mm - 106 W/m² -

* Rain latest hour (hover to see other rain measurements)
** Current wind speed in m/s (hover to see current wind gust speed)